Main page
METAR-TAF:

METAR-TAF

Airports :

Jaffrey Airport–Silver Ranch

Jaffrey, New Hampshire, United States

latitude: 42-48-21N, longitude: 072-00-02W, elevation: 1040 ft

Current weather observation

The report was made 51 minutes ago, at 15:52 UTC
Wind 16 mph from the West with gusts up to 29 mph
Temperature 36°F
Humidity 80%
Pressure 29.22 in. Hg
Visibility: 10 miles
Few clouds at a height of 1000 ft
Broken clouds at a height of 1900 ft
Overcast at a height of 2500 ft
light rain

METAR: KAFN 271552Z AUTO 26014G25KT 10SM -RA FEW010 BKN019 OVC025 02/M01 A2922 RMK AO2 PK WND 27030/1528 WSHFT 1513 SLP908 P0004 T00221011

Time: 11:43 (16:43 UTC)


TAF: missing

Weather observations and forecasts of more than 4000 airports (METAR and TAF reports).

The available stations are represented by yellow and red dots on the map.

Hover mouse over dot to see the name of the station.

Then click to see weather observations and forecasts.

To change the map : click on the green buttons with a black cross to zoom in, on the green button with a dash to zoom out, or on the green arrows for adjacent maps.


METAR-TAF: